createdAt,value
2022-08-23T00:02:32.546Z,4.00
2022-08-23T00:05:09.856Z,2.60
2022-08-23T00:07:44.818Z,4.00
2022-08-23T00:10:18.850Z,6.00
2022-08-23T00:12:52.877Z,9.00
2022-08-23T00:15:26.892Z,6.25
2022-08-23T00:18:01.423Z,4.67
2022-08-23T00:20:35.653Z,7.00
2022-08-23T00:23:09.769Z,7.20
2022-08-23T00:25:43.824Z,6.00
2022-08-23T00:28:34.042Z,8.00
2022-08-23T00:31:08.066Z,6.40
2022-08-23T00:33:42.114Z,5.40
2022-08-23T00:36:16.078Z,5.80
2022-08-23T00:38:50.056Z,9.00
2022-08-23T00:41:24.196Z,7.00
2022-08-23T00:44:16.468Z,6.00
2022-08-23T00:47:09.023Z,6.00
2022-08-23T00:49:43.924Z,5.75
2022-08-23T00:52:17.909Z,3.20
2022-08-23T00:54:52.342Z,5.40
2022-08-23T00:57:26.374Z,2.00
2022-08-23T01:00:00.400Z,4.00
2022-08-23T01:02:34.419Z,7.00
2022-08-23T01:05:08.517Z,8.00
2022-08-23T01:08:02.440Z,5.20
2022-08-23T01:10:36.570Z,5.00
2022-08-23T01:13:12.517Z,9.00
2022-08-23T01:15:46.544Z,9.00
2022-08-23T01:18:20.739Z,6.50
2022-08-23T01:20:55.155Z,9.00
2022-08-23T01:23:29.611Z,7.40
2022-08-23T01:26:03.621Z,9.00
2022-08-23T01:28:37.610Z,9.00
2022-08-23T01:31:11.643Z,9.50
2022-08-23T01:33:45.780Z,12.25
2022-08-23T01:36:19.816Z,12.60
2022-08-23T01:38:53.984Z,12.00
2022-08-23T01:41:28.088Z,16.00
2022-08-23T01:44:02.141Z,17.50
2022-08-23T01:46:37.219Z,24.00
2022-08-23T01:49:11.289Z,19.50
2022-08-23T01:51:45.286Z,23.00
2022-08-23T01:54:20.417Z,18.25
2022-08-23T01:56:54.444Z,16.75
2022-08-23T01:59:28.554Z,16.60
2022-08-23T02:02:03.637Z,15.00
2022-08-23T02:04:37.698Z,14.20
2022-08-23T02:07:11.837Z,17.00
2022-08-23T02:09:46.354Z,12.00
2022-08-23T02:12:20.390Z,19.00
2022-08-23T02:14:54.426Z,12.25
2022-08-23T02:17:29.061Z,7.00
2022-08-23T02:20:03.927Z,7.40
2022-08-23T02:22:39.770Z,10.80
2022-08-23T02:25:13.869Z,8.20
2022-08-23T02:27:48.069Z,8.00
2022-08-23T02:30:22.103Z,8.00
2022-08-23T02:32:57.273Z,6.60
2022-08-23T02:35:34.623Z,8.80
2022-08-23T02:38:09.515Z,6.20
2022-08-23T02:40:43.625Z,7.40
2022-08-23T02:43:17.653Z,4.40
2022-08-23T02:45:52.129Z,5.00
2022-08-23T02:48:26.184Z,5.00
2022-08-23T02:51:00.535Z,3.60
2022-08-23T02:53:34.544Z,3.00
2022-08-23T02:56:17.101Z,5.00
2022-08-23T02:58:55.703Z,12.00
2022-08-23T03:01:29.761Z,10.00
2022-08-23T03:04:04.446Z,7.75
2022-08-23T03:07:32.809Z,8.25
2022-08-23T03:09:42.630Z,7.25
2022-08-23T03:12:16.727Z,4.00
2022-08-23T03:14:52.907Z,2.40
2022-08-23T03:17:27.405Z,5.00
2022-08-23T03:20:01.289Z,6.00
2022-08-23T03:22:35.564Z,7.00
2022-08-23T03:25:09.927Z,4.75
2022-08-23T03:27:44.671Z,6.00
2022-08-23T03:30:19.961Z,4.50
2022-08-23T03:32:54.713Z,6.20
2022-08-23T03:35:29.229Z,4.80
2022-08-23T03:38:03.442Z,7.00
2022-08-23T03:40:38.011Z,7.00
2022-08-23T03:43:12.271Z,9.00
2022-08-23T03:45:47.596Z,7.00
2022-08-23T03:48:21.691Z,6.40
2022-08-23T03:50:55.771Z,6.00
2022-08-23T03:53:29.852Z,6.00
2022-08-23T03:56:03.829Z,5.00
2022-08-23T03:58:37.862Z,5.50
2022-08-23T04:01:11.986Z,7.50
2022-08-23T04:03:47.203Z,8.25
2022-08-23T04:06:22.221Z,6.00
2022-08-23T04:08:59.907Z,8.00
2022-08-23T04:11:34.303Z,5.20
2022-08-23T04:14:08.631Z,5.00
2022-08-23T04:16:43.275Z,6.60
2022-08-23T04:19:17.403Z,7.00
2022-08-23T04:21:51.858Z,8.00
2022-08-23T04:24:27.192Z,8.33
2022-08-23T04:27:03.428Z,8.00
2022-08-23T04:29:40.635Z,7.00
2022-08-23T04:32:25.955Z,7.00
2022-08-23T04:35:02.510Z,8.00
2022-08-23T04:37:36.679Z,8.00
2022-08-23T04:40:29.278Z,9.25
2022-08-23T04:43:03.474Z,11.60
2022-08-23T04:45:38.602Z,10.00
2022-08-23T04:48:33.318Z,13.50
2022-08-23T04:51:07.394Z,14.00
2022-08-23T04:53:41.442Z,11.00
2022-08-23T04:56:15.542Z,12.40
2022-08-23T04:58:49.635Z,14.60
2022-08-23T05:01:26.424Z,14.00
2022-08-23T05:04:01.159Z,10.50
2022-08-23T05:06:44.971Z,12.00
2022-08-23T05:09:20.798Z,14.00
2022-08-23T05:11:55.077Z,11.00
2022-08-23T05:14:29.232Z,8.33
2022-08-23T05:17:04.521Z,8.25
2022-08-23T05:19:44.180Z,12.50
2022-08-23T05:22:21.612Z,8.00
2022-08-23T05:24:56.454Z,10.00
2022-08-23T05:27:32.962Z,9.40
2022-08-23T05:30:07.590Z,11.00
2022-08-23T05:32:41.991Z,13.60
2022-08-23T05:35:16.303Z,10.25
2022-08-23T05:37:50.438Z,12.60
2022-08-23T05:40:24.670Z,14.00
2022-08-23T05:42:58.854Z,12.80
2022-08-23T05:45:33.008Z,11.00
2022-08-23T05:48:07.337Z,14.40
2022-08-23T05:50:44.094Z,10.00
2022-08-23T05:53:18.259Z,11.00
2022-08-23T05:55:52.322Z,11.00
2022-08-23T05:58:26.436Z,13.60
2022-08-23T06:01:00.565Z,12.00
2022-08-23T06:03:34.708Z,12.80
2022-08-23T06:06:09.568Z,14.00
2022-08-23T06:08:43.679Z,13.00
2022-08-23T06:11:18.038Z,10.00
2022-08-23T06:13:55.745Z,11.00
2022-08-23T06:16:30.106Z,8.00
2022-08-23T06:19:04.332Z,11.25
2022-08-23T06:21:39.530Z,12.25
2022-08-23T06:27:38.374Z,14.00
2022-08-23T06:30:13.233Z,9.60
2022-08-23T06:35:51.720Z,10.00
2022-08-23T06:42:22.160Z,9.00
2022-08-23T06:45:00.615Z,13.00
2022-08-23T06:47:37.995Z,9.60
2022-08-23T06:50:13.199Z,9.40
2022-08-23T06:52:47.436Z,9.25
2022-08-23T06:55:40.003Z,7.00
2022-08-23T06:58:27.943Z,14.25
2022-08-23T07:01:04.576Z,8.00
2022-08-23T07:03:38.955Z,14.40
2022-08-23T07:06:13.351Z,11.00
2022-08-23T07:08:50.612Z,14.00
2022-08-23T07:11:24.849Z,9.00
2022-08-23T07:14:06.735Z,10.60
2022-08-23T07:16:47.605Z,14.00
2022-08-23T07:19:29.023Z,10.50
2022-08-23T07:24:55.529Z,14.00
2022-08-23T07:27:31.857Z,11.00
2022-08-23T07:30:13.668Z,8.75
2022-08-23T07:32:48.910Z,11.00
2022-08-23T07:35:26.461Z,9.80
2022-08-23T07:38:04.040Z,13.20
2022-08-23T07:40:40.685Z,9.80
2022-08-23T07:43:18.908Z,11.50
2022-08-23T07:45:53.338Z,8.33
2022-08-23T07:48:52.895Z,10.80
2022-08-23T07:51:53.510Z,12.00
2022-08-23T07:55:02.772Z,9.00
2022-08-23T07:57:38.337Z,10.00
2022-08-23T08:00:22.107Z,13.60
2022-08-23T08:02:56.944Z,11.80
2022-08-23T08:05:55.373Z,11.00
2022-08-23T08:08:55.534Z,12.00
2022-08-23T08:11:34.293Z,11.60
2022-08-23T08:14:11.038Z,12.00
2022-08-23T08:17:01.633Z,10.00
2022-08-23T08:19:45.887Z,8.25
2022-08-23T08:22:23.419Z,11.20
2022-08-23T08:24:59.066Z,12.00
2022-08-23T08:27:39.210Z,11.00
2022-08-23T08:30:14.635Z,7.50
2022-08-23T08:32:56.481Z,12.60
2022-08-23T08:35:37.253Z,18.00
2022-08-23T08:38:21.884Z,13.80
2022-08-23T08:41:13.823Z,14.20
2022-08-23T08:43:54.141Z,12.80
2022-08-23T08:46:45.615Z,13.50
2022-08-23T08:49:25.849Z,13.60
2022-08-23T08:52:04.519Z,10.20
2022-08-23T08:55:12.414Z,9.75
2022-08-23T08:57:49.793Z,10.80
2022-08-23T09:00:39.164Z,10.00
2022-08-23T09:03:30.792Z,11.00
2022-08-23T09:06:05.482Z,12.00
2022-08-23T09:08:44.317Z,10.40
2022-08-23T09:14:28.439Z,11.00
2022-08-23T09:17:06.047Z,13.00
2022-08-23T09:19:41.152Z,12.60
2022-08-23T09:22:15.706Z,15.25
2022-08-23T09:24:52.732Z,12.00
2022-08-23T09:27:46.003Z,11.60
2022-08-23T09:30:20.141Z,15.25
2022-08-23T09:33:07.642Z,13.50
2022-08-23T09:35:42.354Z,11.67
2022-08-23T09:38:43.217Z,15.00
2022-08-23T09:41:18.370Z,13.00
2022-08-23T09:43:53.451Z,10.00
2022-08-23T09:46:32.481Z,11.00
2022-08-23T09:49:09.378Z,12.00
2022-08-23T09:51:46.241Z,11.40
2022-08-23T09:54:21.576Z,11.40
2022-08-23T09:56:56.041Z,14.00
2022-08-23T09:59:36.587Z,12.60
2022-08-23T10:02:29.906Z,12.00
2022-08-23T10:05:13.288Z,16.40
2022-08-23T10:07:54.330Z,10.50
2022-08-23T10:13:30.521Z,12.60
2022-08-23T10:16:04.598Z,13.00
2022-08-23T10:18:41.263Z,11.25
2022-08-23T10:21:21.102Z,15.20
2022-08-23T10:23:58.538Z,12.00
2022-08-23T10:26:40.089Z,17.60
2022-08-23T10:29:34.458Z,10.00
2022-08-23T10:32:08.451Z,14.00
2022-08-23T10:34:48.404Z,16.75
2022-08-23T10:37:30.425Z,18.20
2022-08-23T10:40:06.405Z,16.00
2022-08-23T10:42:41.569Z,18.40
2022-08-23T10:45:15.775Z,23.50
2022-08-23T10:48:00.109Z,14.60
2022-08-23T10:50:34.664Z,16.25
2022-08-23T10:53:09.924Z,13.00
2022-08-23T10:56:18.286Z,14.00
2022-08-23T10:59:19.812Z,14.80
2022-08-23T11:01:56.541Z,19.00
2022-08-23T11:04:32.205Z,16.00
2022-08-23T11:07:06.354Z,12.40
2022-08-23T11:09:41.292Z,21.00
2022-08-23T11:12:15.478Z,16.50
2022-08-23T11:14:49.625Z,16.00
2022-08-23T11:17:24.497Z,17.00
2022-08-23T11:19:58.612Z,20.20
2022-08-23T11:22:34.513Z,13.60
2022-08-23T11:25:09.419Z,13.00
2022-08-23T11:27:59.553Z,12.00
2022-08-23T11:30:35.409Z,13.25
2022-08-23T11:33:09.557Z,11.50
2022-08-23T11:35:45.190Z,14.80
2022-08-23T11:38:22.467Z,23.60
2022-08-23T11:40:57.901Z,13.00
2022-08-23T11:43:39.191Z,14.00
2022-08-23T11:46:13.374Z,14.00
2022-08-23T11:48:47.545Z,11.25
2022-08-23T11:51:21.638Z,16.50
2022-08-23T11:53:55.736Z,11.00
2022-08-23T11:56:30.690Z,12.00
2022-08-23T11:59:08.805Z,13.00
2022-08-23T12:01:49.670Z,13.00
2022-08-23T12:04:25.739Z,15.00
2022-08-23T12:07:14.332Z,16.40
2022-08-23T12:09:48.872Z,11.00
2022-08-23T12:12:26.676Z,12.60
2022-08-23T12:15:05.386Z,10.25
2022-08-23T12:17:40.584Z,14.50
2022-08-23T12:20:17.389Z,8.50
2022-08-23T12:22:55.403Z,9.20
2022-08-23T12:25:34.358Z,10.20
2022-08-23T12:28:11.624Z,13.00
2022-08-23T12:30:46.125Z,12.00
2022-08-23T12:36:13.653Z,13.00
2022-08-23T12:38:51.698Z,15.80
2022-08-23T12:41:26.484Z,18.50
2022-08-23T12:44:00.714Z,12.00
2022-08-23T12:46:34.872Z,14.00
2022-08-23T12:49:28.393Z,16.80
2022-08-23T12:52:03.638Z,18.40
2022-08-23T12:54:38.381Z,16.00
2022-08-23T12:57:14.003Z,17.20
2022-08-23T12:59:48.485Z,19.00
2022-08-23T13:02:22.775Z,20.40
2022-08-23T13:04:57.584Z,13.75
2022-08-23T13:07:33.691Z,20.50
2022-08-23T13:10:08.262Z,16.00
2022-08-23T13:12:42.531Z,15.00
2022-08-23T13:15:16.756Z,14.50
2022-08-23T13:17:52.835Z,19.00
2022-08-23T13:20:27.361Z,14.00
2022-08-23T13:23:01.891Z,16.20
2022-08-23T13:25:41.300Z,22.50
2022-08-23T13:28:15.802Z,16.00
2022-08-23T13:30:51.236Z,20.00
2022-08-23T13:33:25.672Z,15.60
2022-08-23T13:36:01.103Z,19.25
2022-08-23T13:38:41.196Z,18.80
2022-08-23T13:41:16.062Z,19.40
2022-08-23T13:43:53.855Z,14.80
2022-08-23T13:46:30.445Z,16.50
2022-08-23T13:49:15.022Z,16.00
2022-08-23T13:51:50.236Z,16.00
2022-08-23T13:54:24.642Z,21.60
2022-08-23T13:57:01.208Z,15.00
2022-08-23T13:59:35.302Z,18.75
2022-08-23T14:02:09.814Z,13.60
2022-08-23T14:04:43.955Z,15.60
2022-08-23T14:07:18.024Z,13.40
2022-08-23T14:09:55.000Z,14.00
2022-08-23T14:12:29.735Z,13.80
2022-08-23T14:15:05.417Z,16.00
2022-08-23T14:17:40.591Z,14.00
2022-08-23T14:20:33.562Z,11.25
2022-08-23T14:23:11.864Z,16.00
2022-08-23T14:25:47.750Z,14.60
2022-08-23T14:28:21.819Z,16.40
2022-08-23T14:30:58.288Z,12.50
2022-08-23T14:33:32.344Z,13.00
2022-08-23T14:36:06.356Z,13.00
2022-08-23T14:38:40.908Z,13.50
2022-08-23T14:41:15.984Z,14.00
2022-08-23T14:43:50.421Z,15.80
2022-08-23T14:46:25.683Z,19.00
2022-08-23T14:49:00.420Z,17.60
2022-08-23T14:51:34.907Z,17.80
2022-08-23T14:54:09.721Z,20.75
2022-08-23T14:56:44.105Z,16.25
2022-08-23T14:59:19.435Z,23.60
2022-08-23T15:01:53.780Z,17.00
2022-08-23T15:04:34.247Z,21.00
2022-08-23T15:07:19.447Z,19.80
2022-08-23T15:09:56.978Z,15.75
2022-08-23T15:15:27.178Z,20.40
2022-08-23T15:18:03.449Z,20.00
2022-08-23T15:20:38.835Z,17.60
2022-08-23T15:23:12.979Z,16.00
2022-08-23T15:25:49.986Z,23.60
2022-08-23T15:28:24.201Z,23.50
2022-08-23T15:31:01.257Z,20.00
2022-08-23T15:33:35.761Z,21.40
2022-08-23T15:36:10.359Z,23.60
2022-08-23T15:38:45.450Z,23.00
2022-08-23T15:41:19.914Z,20.00
2022-08-23T15:43:53.998Z,28.40
2022-08-23T15:46:28.470Z,24.20
2022-08-23T15:49:03.482Z,25.20
2022-08-23T15:51:37.989Z,20.80
2022-08-23T15:54:12.397Z,23.25
2022-08-23T15:56:46.392Z,24.80
2022-08-23T15:59:21.046Z,21.00
2022-08-23T16:01:55.593Z,32.50
2022-08-23T16:04:35.521Z,24.40
2022-08-23T16:07:10.459Z,30.75
2022-08-23T16:09:45.565Z,30.80
2022-08-23T16:12:19.623Z,24.80
2022-08-23T16:14:54.108Z,37.25
2022-08-23T16:17:28.517Z,31.25
2022-08-23T16:20:03.041Z,33.75
2022-08-23T16:22:37.708Z,30.80
2022-08-23T16:25:13.013Z,29.00
2022-08-23T16:27:47.570Z,32.00
2022-08-23T16:30:21.993Z,28.60
2022-08-23T16:32:56.616Z,31.00
2022-08-23T16:35:31.817Z,33.50
2022-08-23T16:38:06.328Z,35.40
2022-08-23T16:40:40.811Z,37.60
2022-08-23T16:43:15.295Z,44.75
2022-08-23T16:45:49.326Z,31.25
2022-08-23T16:48:23.792Z,42.60
2022-08-23T16:50:58.265Z,35.40
2022-08-23T16:53:32.295Z,33.50
2022-08-23T16:56:06.730Z,35.75
2022-08-23T16:58:41.231Z,36.40
2022-08-23T17:01:15.536Z,32.40
2022-08-23T17:03:49.897Z,42.60
2022-08-23T17:06:24.652Z,29.25
2022-08-23T17:08:58.752Z,34.00
2022-08-23T17:11:33.787Z,38.50
2022-08-23T17:14:07.917Z,41.20
2022-08-23T17:16:43.184Z,38.20
2022-08-23T17:19:17.649Z,43.00
2022-08-23T17:21:51.712Z,47.50
2022-08-23T17:24:25.946Z,36.67
2022-08-23T17:27:01.083Z,47.75
2022-08-23T17:29:37.601Z,47.20
2022-08-23T17:32:13.479Z,40.25
2022-08-23T17:34:47.653Z,46.60
2022-08-23T17:37:22.235Z,43.60
2022-08-23T17:39:56.397Z,47.00
2022-08-23T17:42:31.884Z,44.25
2022-08-23T17:45:06.422Z,48.40
2022-08-23T17:47:40.501Z,43.00
2022-08-23T17:50:15.014Z,48.40
2022-08-23T17:52:51.658Z,48.00
2022-08-23T17:55:26.078Z,48.50
2022-08-23T17:58:04.348Z,43.20
2022-08-23T18:00:39.751Z,40.00
2022-08-23T18:03:13.880Z,43.00
2022-08-23T18:05:48.020Z,43.50
2022-08-23T18:08:22.555Z,46.60
2022-08-23T18:10:57.126Z,44.80
2022-08-23T18:13:33.659Z,49.50
2022-08-23T18:16:08.301Z,44.40
2022-08-23T18:18:42.447Z,41.60
2022-08-23T18:21:16.478Z,48.50
2022-08-23T18:23:51.705Z,43.00
2022-08-23T18:26:45.080Z,38.40
2022-08-23T18:29:36.027Z,49.80
2022-08-23T18:32:11.257Z,43.20
2022-08-23T18:34:46.372Z,45.60
2022-08-23T18:37:22.581Z,44.60
2022-08-23T18:39:57.100Z,43.40
2022-08-23T18:42:31.119Z,41.20
2022-08-23T18:45:05.800Z,45.75
2022-08-23T18:47:41.096Z,42.50
2022-08-23T18:50:15.292Z,52.50
2022-08-23T18:52:49.638Z,48.75
2022-08-23T18:55:24.072Z,53.75
2022-08-23T18:57:58.442Z,53.00
2022-08-23T19:00:32.867Z,53.00
2022-08-23T19:03:07.923Z,50.75
2022-08-23T19:05:43.439Z,51.00
2022-08-23T19:08:18.080Z,50.00
2022-08-23T19:10:52.617Z,51.00
2022-08-23T19:13:28.506Z,51.75
2022-08-23T19:16:02.685Z,50.50
2022-08-23T19:18:37.161Z,41.50
2022-08-23T19:21:11.528Z,43.25
2022-08-23T19:23:46.598Z,41.20
2022-08-23T19:26:20.676Z,43.00
2022-08-23T19:28:54.827Z,39.40
2022-08-23T19:31:34.443Z,45.25
2022-08-23T19:34:12.262Z,32.20
2022-08-23T19:36:55.796Z,39.60
2022-08-23T19:39:46.392Z,36.50
2022-08-23T19:42:21.618Z,31.40
2022-08-23T19:44:56.575Z,27.60
2022-08-23T19:47:30.794Z,35.00
2022-08-23T19:50:06.239Z,33.60
2022-08-23T19:52:40.277Z,31.60
2022-08-23T19:55:15.370Z,29.40
2022-08-23T19:57:50.311Z,23.00
2022-08-23T20:00:25.153Z,22.40
2022-08-23T20:02:59.775Z,20.25
2022-08-23T20:05:35.215Z,15.00
2022-08-23T20:08:10.013Z,13.00
2022-08-23T20:10:45.485Z,15.00
2022-08-23T20:13:21.128Z,18.25
2022-08-23T20:15:57.342Z,17.60
2022-08-23T20:18:33.047Z,16.00
2022-08-23T20:21:07.561Z,16.00
2022-08-23T20:24:00.628Z,18.25
2022-08-23T20:26:36.200Z,11.40
2022-08-23T20:29:11.089Z,11.50
2022-08-23T20:31:46.240Z,9.50
2022-08-23T20:34:21.259Z,10.00
2022-08-23T20:36:56.912Z,9.00
2022-08-23T20:39:31.336Z,7.00
2022-08-23T20:42:06.650Z,7.00
2022-08-23T20:44:42.213Z,8.60
2022-08-23T20:47:16.854Z,5.80
2022-08-23T20:49:52.235Z,7.20
2022-08-23T20:52:26.316Z,6.75
2022-08-23T20:55:01.439Z,8.00
2022-08-23T20:57:38.054Z,4.00
2022-08-23T21:00:13.666Z,6.00
2022-08-23T21:02:48.137Z,6.60
2022-08-23T21:05:23.219Z,5.00
2022-08-23T21:07:58.635Z,9.00
2022-08-23T21:10:33.436Z,5.00
2022-08-23T21:13:10.500Z,5.00
2022-08-23T21:15:44.900Z,4.00
2022-08-23T21:18:19.375Z,4.60
2022-08-23T21:20:53.920Z,6.80
2022-08-23T21:23:28.428Z,6.00
2022-08-23T21:26:02.544Z,6.00
2022-08-23T21:28:37.102Z,6.00
2022-08-23T21:31:11.195Z,8.60
2022-08-23T21:33:45.520Z,5.75
2022-08-23T21:36:19.736Z,7.80
2022-08-23T21:38:54.457Z,8.00
2022-08-23T21:41:29.471Z,6.00
2022-08-23T21:44:03.617Z,5.00
2022-08-23T21:46:38.455Z,6.00
2022-08-23T21:49:14.145Z,6.40
2022-08-23T21:51:49.656Z,6.00
2022-08-23T21:54:25.394Z,7.00
2022-08-23T21:57:00.526Z,6.00
2022-08-23T21:59:34.962Z,5.00
2022-08-23T22:02:09.141Z,7.50
2022-08-23T22:04:43.175Z,6.00
2022-08-23T22:07:17.676Z,5.00
2022-08-23T22:09:52.543Z,4.00
2022-08-23T22:12:27.234Z,4.00
2022-08-23T22:15:01.713Z,4.00
2022-08-23T22:17:35.772Z,4.60
2022-08-23T22:20:10.414Z,3.75
2022-08-23T22:22:44.532Z,1.50
2022-08-23T22:25:19.487Z,3.00
2022-08-23T22:27:54.074Z,5.00
2022-08-23T22:30:29.215Z,2.20
2022-08-23T22:33:04.034Z,5.00
2022-08-23T22:35:38.257Z,3.00
2022-08-23T22:38:14.606Z,2.00
2022-08-23T22:40:49.388Z,3.00
2022-08-23T22:43:24.721Z,3.00
2022-08-23T22:45:58.799Z,2.00
2022-08-23T22:48:38.378Z,2.00
2022-08-23T22:51:12.505Z,1.25
2022-08-23T22:53:48.228Z,3.00
2022-08-23T22:56:22.781Z,2.00
2022-08-23T22:58:56.990Z,4.60
2022-08-23T23:01:31.395Z,3.75
2022-08-23T23:04:05.623Z,3.00
2022-08-23T23:06:39.678Z,1.20
2022-08-23T23:09:14.224Z,4.00
2022-08-23T23:11:49.289Z,3.50
2022-08-23T23:14:23.862Z,5.00
2022-08-23T23:16:58.005Z,3.00
2022-08-23T23:19:50.744Z,2.00
2022-08-23T23:22:25.200Z,3.20
2022-08-23T23:24:59.780Z,2.75
2022-08-23T23:27:49.776Z,3.00
2022-08-23T23:30:24.283Z,2.20
2022-08-23T23:32:58.827Z,1.00
2022-08-23T23:35:32.931Z,3.75
2022-08-23T23:38:08.025Z,3.00
2022-08-23T23:40:42.516Z,1.00
2022-08-23T23:43:17.039Z,3.00
2022-08-23T23:45:51.614Z,3.40
2022-08-23T23:48:25.690Z,2.50
2022-08-23T23:51:00.718Z,3.00
2022-08-23T23:53:34.752Z,5.60
2022-08-23T23:56:09.588Z,3.00
2022-08-23T23:58:43.664Z,3.75
